Nobleford, Canada
Current Conditions -  °F | °C
As of 2:00 AM on Sunday 23 Nov 2014 (Local Time) from CYQL Reporting Station
Overcast Overcast  
Wind Chill: 25°   Ceiling: 9500
Heat Index: 30°   Visibility: 9mi
Dew Point: 28°   Wind: 5mph
Humidity: 93%   Direction: 60°ENE
Pressure: 29.74"   Gusts: NA
Location:  49.88°N, 113.05°W
Report Text: CYQL 230900Z AUTO 06004KT 9SM SCT023 OVC095 M01/M02 A2974 RMK SLP096
Loading
Personal Weather Stations






























Interactive Weather Map New forecast layout! Learn more

10-Day Weather Forecast

Advertisements
Track Severe Weather on mobile